createdAt,value
2022-09-13T00:00:43.874Z,14.10
2022-09-13T00:03:12.178Z,14.00
2022-09-13T00:05:39.509Z,14.00
2022-09-13T00:08:07.514Z,14.00
2022-09-13T00:10:36.167Z,14.00
2022-09-13T00:13:02.997Z,14.00
2022-09-13T00:15:30.194Z,14.00
2022-09-13T00:17:56.949Z,14.00
2022-09-13T00:20:23.938Z,13.90
2022-09-13T00:22:50.602Z,13.90
2022-09-13T00:25:17.863Z,13.90
2022-09-13T00:27:46.045Z,13.80
2022-09-13T00:30:13.374Z,13.80
2022-09-13T00:32:40.331Z,13.80
2022-09-13T00:35:07.805Z,13.80
2022-09-13T00:37:34.688Z,13.80
2022-09-13T00:40:02.381Z,13.70
2022-09-13T00:42:32.802Z,13.70
2022-09-13T00:45:06.698Z,13.70
2022-09-13T00:47:39.146Z,13.60
2022-09-13T00:50:28.343Z,13.60
2022-09-13T00:53:04.948Z,13.60
2022-09-13T00:55:52.711Z,13.60
2022-09-13T00:58:31.197Z,13.60
2022-09-13T01:00:59.994Z,13.60
2022-09-13T01:03:30.963Z,13.50
2022-09-13T01:06:04.499Z,13.50
2022-09-13T01:08:32.368Z,13.60
2022-09-13T01:11:01.613Z,13.50
2022-09-13T01:13:32.143Z,13.50
2022-09-13T01:16:00.018Z,13.50
2022-09-13T01:18:26.962Z,13.50
2022-09-13T01:21:21.449Z,13.50
2022-09-13T01:23:57.682Z,13.50
2022-09-13T01:26:35.459Z,13.50
2022-09-13T01:29:30.951Z,13.50
2022-09-13T01:32:03.174Z,13.40
2022-09-13T01:35:07.207Z,13.40
2022-09-13T01:37:52.207Z,13.40
2022-09-13T01:40:22.065Z,13.40
2022-09-13T01:43:16.570Z,13.40
2022-09-13T01:46:13.567Z,13.30
2022-09-13T01:49:03.733Z,13.30
2022-09-13T01:51:59.474Z,13.30
2022-09-13T01:54:38.914Z,13.30
2022-09-13T01:57:42.713Z,13.20
2022-09-13T02:00:14.107Z,13.20
2022-09-13T02:02:46.915Z,13.20
2022-09-13T02:05:41.305Z,13.20
2022-09-13T02:08:23.474Z,13.20
2022-09-13T02:10:58.857Z,13.10
2022-09-13T02:13:30.056Z,13.10
2022-09-13T02:16:01.022Z,13.10
2022-09-13T02:18:35.640Z,13.10
2022-09-13T02:21:16.898Z,13.10
2022-09-13T02:23:50.248Z,13.10
2022-09-13T02:26:20.161Z,13.00
2022-09-13T02:28:54.766Z,12.90
2022-09-13T02:31:30.844Z,12.80
2022-09-13T02:34:03.517Z,12.80
2022-09-13T02:36:36.214Z,12.80
2022-09-13T02:39:12.235Z,12.80
2022-09-13T02:42:12.938Z,12.90
2022-09-13T02:44:46.658Z,12.80
2022-09-13T02:47:50.024Z,12.90
2022-09-13T02:50:43.474Z,12.80
2022-09-13T02:53:35.708Z,12.80
2022-09-13T02:56:10.806Z,12.80
2022-09-13T02:59:02.359Z,12.80
2022-09-13T03:01:29.481Z,12.70
2022-09-13T03:03:56.248Z,12.60
2022-09-13T03:06:29.675Z,12.60
2022-09-13T03:09:00.527Z,12.60
2022-09-13T03:11:37.564Z,12.60
2022-09-13T03:14:12.778Z,12.60
2022-09-13T03:17:02.784Z,12.70
2022-09-13T03:19:38.673Z,12.60
2022-09-13T03:22:26.399Z,12.60
2022-09-13T03:25:06.479Z,12.60
2022-09-13T03:28:10.671Z,12.60
2022-09-13T03:30:41.356Z,12.50
2022-09-13T03:33:41.889Z,12.60
2022-09-13T03:36:11.315Z,12.50
2022-09-13T03:38:45.671Z,12.50
2022-09-13T03:41:24.285Z,12.50
2022-09-13T03:43:55.854Z,12.50
2022-09-13T03:46:48.717Z,12.40
2022-09-13T03:49:18.021Z,12.30
2022-09-13T03:51:47.933Z,12.30
2022-09-13T03:54:24.372Z,12.30
2022-09-13T03:57:17.461Z,12.20
2022-09-13T04:00:02.402Z,12.20
2022-09-13T04:02:29.247Z,12.20
2022-09-13T04:04:56.374Z,12.20
2022-09-13T04:07:24.593Z,12.30
2022-09-13T04:09:51.501Z,12.40
2022-09-13T04:12:19.007Z,12.40
2022-09-13T04:14:45.762Z,12.50
2022-09-13T04:17:13.156Z,12.50
2022-09-13T04:19:40.387Z,12.50
2022-09-13T04:22:07.424Z,12.60
2022-09-13T04:24:34.188Z,12.70
2022-09-13T04:27:01.877Z,12.70
2022-09-13T04:29:28.967Z,12.70
2022-09-13T04:31:56.203Z,12.70
2022-09-13T04:34:23.514Z,12.70
2022-09-13T04:36:52.653Z,12.70
2022-09-13T04:39:20.578Z,12.60
2022-09-13T04:41:48.767Z,12.50
2022-09-13T04:44:17.032Z,12.50
2022-09-13T04:46:47.558Z,12.50
2022-09-13T04:49:15.661Z,12.30
2022-09-13T04:51:42.589Z,12.20
2022-09-13T04:54:14.977Z,12.20
2022-09-13T04:56:43.566Z,12.30
2022-09-13T04:59:11.563Z,12.30
2022-09-13T05:01:38.388Z,12.20
2022-09-13T05:04:06.543Z,12.20
2022-09-13T05:06:33.921Z,12.20
2022-09-13T05:09:00.739Z,12.20
2022-09-13T05:11:28.812Z,12.20
2022-09-13T05:13:58.398Z,12.20
2022-09-13T05:16:27.421Z,12.30
2022-09-13T05:18:55.100Z,12.30
2022-09-13T05:21:21.870Z,12.30
2022-09-13T05:23:54.066Z,12.40
2022-09-13T05:26:22.259Z,12.30
2022-09-13T05:28:49.283Z,12.20
2022-09-13T05:31:21.923Z,12.10
2022-09-13T05:33:54.842Z,12.20
2022-09-13T05:36:21.538Z,12.20
2022-09-13T05:38:48.290Z,12.30
2022-09-13T05:41:15.085Z,12.40
2022-09-13T05:43:41.803Z,12.50
2022-09-13T05:46:12.858Z,12.50
2022-09-13T05:48:40.391Z,12.60
2022-09-13T05:51:15.199Z,12.70
2022-09-13T05:53:44.149Z,12.80
2022-09-13T05:56:16.670Z,12.80
2022-09-13T05:58:45.789Z,12.90
2022-09-13T06:01:13.162Z,13.10
2022-09-13T06:03:39.970Z,13.10
2022-09-13T06:06:07.083Z,13.20
2022-09-13T06:08:35.013Z,13.30
2022-09-13T06:11:07.603Z,13.40
2022-09-13T06:13:35.483Z,13.60
2022-09-13T06:16:04.132Z,13.70
2022-09-13T06:18:31.275Z,13.90
2022-09-13T06:21:00.371Z,14.00
2022-09-13T06:23:30.156Z,14.10
2022-09-13T06:26:09.019Z,14.40
2022-09-13T06:28:37.577Z,14.60
2022-09-13T06:31:12.507Z,14.90
2022-09-13T06:33:41.356Z,15.30
2022-09-13T06:36:14.670Z,15.60
2022-09-13T06:38:42.083Z,16.00
2022-09-13T06:41:14.752Z,16.30
2022-09-13T06:43:42.088Z,16.70
2022-09-13T06:46:12.050Z,17.00
2022-09-13T06:48:41.610Z,17.30
2022-09-13T06:51:14.355Z,17.70
2022-09-13T06:53:41.779Z,18.00
2022-09-13T06:56:15.919Z,18.30
2022-09-13T06:58:44.895Z,18.70
2022-09-13T07:01:14.618Z,19.00
2022-09-13T07:03:50.556Z,19.40
2022-09-13T07:06:29.234Z,19.80
2022-09-13T07:08:57.408Z,20.10
2022-09-13T07:11:26.951Z,20.50
2022-09-13T07:13:56.241Z,20.70
2022-09-13T07:16:25.926Z,20.90
2022-09-13T07:18:54.626Z,20.90
2022-09-13T07:21:22.402Z,20.90
2022-09-13T07:23:49.749Z,21.10
2022-09-13T07:26:16.476Z,21.30
2022-09-13T07:28:45.687Z,21.50
2022-09-13T07:31:19.187Z,21.60
2022-09-13T07:33:46.303Z,21.60
2022-09-13T07:36:13.591Z,21.40
2022-09-13T07:38:44.617Z,21.50
2022-09-13T07:41:16.708Z,21.60
2022-09-13T07:43:43.957Z,21.70
2022-09-13T07:46:13.134Z,21.80
2022-09-13T07:48:42.515Z,21.90
2022-09-13T07:51:12.139Z,21.90
2022-09-13T07:53:40.432Z,21.90
2022-09-13T07:56:13.346Z,21.90
2022-09-13T07:58:41.834Z,22.00
2022-09-13T08:01:15.570Z,22.00
2022-09-13T08:03:43.039Z,22.00
2022-09-13T08:06:10.347Z,22.10
2022-09-13T08:08:37.606Z,22.10
2022-09-13T08:11:06.247Z,21.90
2022-09-13T08:13:33.433Z,22.10
2022-09-13T08:16:05.019Z,22.20
2022-09-13T08:18:32.450Z,22.40
2022-09-13T08:21:00.749Z,22.50
2022-09-13T08:23:27.647Z,22.60
2022-09-13T08:25:54.437Z,22.80
2022-09-13T08:28:27.330Z,23.00
2022-09-13T08:30:54.661Z,23.40
2022-09-13T08:33:21.530Z,23.70
2022-09-13T08:35:52.747Z,24.00
2022-09-13T08:38:19.964Z,24.20
2022-09-13T08:40:56.910Z,24.40
2022-09-13T08:43:41.762Z,24.50
2022-09-13T08:46:24.495Z,24.40
2022-09-13T08:48:54.880Z,24.40
2022-09-13T08:51:47.374Z,24.30
2022-09-13T08:54:16.886Z,24.40
2022-09-13T08:57:17.211Z,24.70
2022-09-13T09:00:20.645Z,24.90
2022-09-13T09:03:10.126Z,25.10
2022-09-13T09:05:47.798Z,25.20
2022-09-13T09:08:38.243Z,25.30
2022-09-13T09:11:14.632Z,25.30
2022-09-13T09:13:54.992Z,25.40
2022-09-13T09:16:35.295Z,25.50
2022-09-13T09:19:40.745Z,25.60
2022-09-13T09:22:31.791Z,25.60
2022-09-13T09:24:58.790Z,25.50
2022-09-13T09:27:26.059Z,25.70
2022-09-13T09:29:55.147Z,25.90
2022-09-13T09:32:47.266Z,26.10
2022-09-13T09:35:48.302Z,26.10
2022-09-13T09:38:39.722Z,26.40
2022-09-13T09:41:16.479Z,26.80
2022-09-13T09:44:04.938Z,26.90
2022-09-13T09:46:35.808Z,27.00
2022-09-13T09:49:45.335Z,27.00
2022-09-13T09:52:16.294Z,27.20
2022-09-13T09:54:43.076Z,27.30
2022-09-13T09:57:09.973Z,27.30
2022-09-13T09:59:37.145Z,27.40
2022-09-13T10:02:20.487Z,27.50
2022-09-13T10:05:00.495Z,27.70
2022-09-13T10:07:32.709Z,27.70
2022-09-13T10:10:21.712Z,27.90
2022-09-13T10:12:54.730Z,28.10
2022-09-13T10:15:24.801Z,28.10
2022-09-13T10:18:43.569Z,28.00
2022-09-13T10:21:22.407Z,27.90
2022-09-13T10:23:50.907Z,27.80
2022-09-13T10:26:23.375Z,28.00
2022-09-13T10:29:10.648Z,28.00
2022-09-13T10:31:44.471Z,27.90
2022-09-13T10:34:20.587Z,27.80
2022-09-13T10:36:55.899Z,27.80
2022-09-13T10:39:24.984Z,27.90
2022-09-13T10:42:04.498Z,27.90
2022-09-13T10:44:37.103Z,28.00
2022-09-13T10:47:10.878Z,28.00
2022-09-13T10:49:59.350Z,28.20
2022-09-13T10:52:31.200Z,28.20
2022-09-13T10:55:25.573Z,28.30
2022-09-13T10:58:13.701Z,28.10
2022-09-13T11:00:59.586Z,28.00
2022-09-13T11:03:57.515Z,28.10
2022-09-13T11:06:45.859Z,28.00
2022-09-13T11:09:19.659Z,27.90
2022-09-13T11:12:05.100Z,28.00
2022-09-13T11:14:50.606Z,28.10
2022-09-13T11:17:20.160Z,28.10
2022-09-13T11:19:57.193Z,28.00
2022-09-13T11:22:50.161Z,28.00
2022-09-13T11:25:32.026Z,28.00
2022-09-13T11:28:17.408Z,28.00
2022-09-13T11:30:56.219Z,28.10
2022-09-13T11:33:41.663Z,28.00
2022-09-13T11:36:34.789Z,27.70
2022-09-13T11:39:01.625Z,27.60
2022-09-13T11:41:42.073Z,27.50
2022-09-13T11:44:39.036Z,27.40
2022-09-13T11:47:05.682Z,27.30
2022-09-13T11:50:09.227Z,27.20
2022-09-13T11:53:00.771Z,26.90
2022-09-13T11:55:32.351Z,26.70
2022-09-13T11:58:04.277Z,26.70
2022-09-13T12:00:48.555Z,26.70
2022-09-13T12:03:27.921Z,26.70
2022-09-13T12:06:06.067Z,26.80
2022-09-13T12:08:38.256Z,26.80
2022-09-13T12:11:27.258Z,26.60
2022-09-13T12:14:01.072Z,26.50
2022-09-13T12:16:48.743Z,26.30
2022-09-13T12:19:27.753Z,26.20
2022-09-13T12:21:57.867Z,26.10
2022-09-13T12:24:42.346Z,25.90
2022-09-13T12:27:28.722Z,25.80
2022-09-13T12:30:14.890Z,25.70
2022-09-13T12:32:45.014Z,25.80
2022-09-13T12:35:21.754Z,25.80
2022-09-13T12:37:58.124Z,25.80
2022-09-13T12:40:33.893Z,25.80
2022-09-13T12:43:15.580Z,25.70
2022-09-13T12:46:16.484Z,25.80
2022-09-13T12:49:20.661Z,25.90
2022-09-13T12:52:21.358Z,26.00
2022-09-13T12:55:45.257Z,26.00
2022-09-13T12:58:34.416Z,25.90
2022-09-13T13:01:06.374Z,25.90
2022-09-13T13:03:42.589Z,25.80
2022-09-13T13:06:33.794Z,25.90
2022-09-13T13:09:07.442Z,25.80
2022-09-13T13:11:46.539Z,25.80
2022-09-13T13:14:35.338Z,25.80
2022-09-13T13:17:39.255Z,25.80
2022-09-13T13:20:47.011Z,25.90
2022-09-13T13:23:32.054Z,25.90
2022-09-13T13:26:05.692Z,25.90
2022-09-13T13:28:44.878Z,26.00
2022-09-13T13:31:31.576Z,25.90
2022-09-13T13:34:11.084Z,25.90
2022-09-13T13:36:43.676Z,26.00
2022-09-13T13:39:25.584Z,25.90
2022-09-13T13:41:58.997Z,26.00
2022-09-13T13:44:25.863Z,26.10
2022-09-13T13:46:55.370Z,26.20
2022-09-13T13:49:31.396Z,26.30
2022-09-13T13:52:22.362Z,26.50
2022-09-13T13:54:55.187Z,26.70
2022-09-13T13:58:01.325Z,26.90
2022-09-13T14:00:31.761Z,27.00
2022-09-13T14:03:18.723Z,27.00
2022-09-13T14:06:07.296Z,27.00
2022-09-13T14:09:19.011Z,27.00
2022-09-13T14:11:58.291Z,27.00
2022-09-13T14:14:49.350Z,27.00
2022-09-13T14:17:48.420Z,27.10
2022-09-13T14:20:18.371Z,27.10
2022-09-13T14:22:45.136Z,27.20
2022-09-13T14:25:22.492Z,27.20
2022-09-13T14:27:50.553Z,27.10
2022-09-13T14:30:22.563Z,27.10
2022-09-13T14:32:52.829Z,27.20
2022-09-13T14:35:30.230Z,27.30
2022-09-13T14:38:18.092Z,27.30
2022-09-13T14:40:49.339Z,27.20
2022-09-13T14:43:21.204Z,27.20
2022-09-13T14:45:55.135Z,26.90
2022-09-13T14:48:23.511Z,26.80
2022-09-13T14:50:57.587Z,26.80
2022-09-13T14:53:31.612Z,26.80
2022-09-13T14:56:16.358Z,26.80
2022-09-13T14:58:45.909Z,26.80
2022-09-13T15:01:16.096Z,26.90
2022-09-13T15:03:47.655Z,26.90
2022-09-13T15:06:26.826Z,26.80
2022-09-13T15:08:57.471Z,26.80
2022-09-13T15:11:34.161Z,26.90
2022-09-13T15:14:21.111Z,26.60
2022-09-13T15:17:02.927Z,26.50
2022-09-13T15:19:32.774Z,26.40
2022-09-13T15:22:05.296Z,26.50
2022-09-13T15:24:34.281Z,26.40
2022-09-13T15:27:06.838Z,26.50
2022-09-13T15:29:35.036Z,26.40
2022-09-13T15:32:02.554Z,26.20
2022-09-13T15:34:29.515Z,26.10
2022-09-13T15:37:10.089Z,26.10
2022-09-13T15:40:01.498Z,26.10
2022-09-13T15:42:28.246Z,26.10
2022-09-13T15:44:54.961Z,26.10
2022-09-13T15:47:21.737Z,26.10
2022-09-13T15:49:50.892Z,25.90
2022-09-13T15:52:19.073Z,25.80
2022-09-13T15:54:49.330Z,25.70
2022-09-13T15:57:23.680Z,25.50
2022-09-13T15:59:50.394Z,25.50
2022-09-13T16:02:29.058Z,25.40
2022-09-13T16:04:56.589Z,25.50
2022-09-13T16:07:24.855Z,25.40
2022-09-13T16:09:52.158Z,25.40
2022-09-13T16:12:19.142Z,25.30
2022-09-13T16:14:46.357Z,25.30
2022-09-13T16:17:25.365Z,25.30
2022-09-13T16:19:53.422Z,25.20
2022-09-13T16:22:20.606Z,25.10
2022-09-13T16:24:47.434Z,25.00
2022-09-13T16:27:16.932Z,25.10
2022-09-13T16:29:43.952Z,25.00
2022-09-13T16:32:10.917Z,25.00
2022-09-13T16:34:37.687Z,25.00
2022-09-13T16:37:04.952Z,25.00
2022-09-13T16:39:31.758Z,24.90
2022-09-13T16:41:58.519Z,24.80
2022-09-13T16:44:25.406Z,24.80
2022-09-13T16:46:52.255Z,24.90
2022-09-13T16:49:19.010Z,24.80
2022-09-13T16:51:45.836Z,24.80
2022-09-13T16:54:12.511Z,24.70
2022-09-13T16:56:39.239Z,24.70
2022-09-13T16:59:05.935Z,24.70
2022-09-13T17:01:32.828Z,24.60
2022-09-13T17:03:59.609Z,24.40
2022-09-13T17:06:27.573Z,24.30
2022-09-13T17:08:57.625Z,24.20
2022-09-13T17:11:26.828Z,24.00
2022-09-13T17:13:54.370Z,24.00
2022-09-13T17:16:29.571Z,24.00
2022-09-13T17:18:58.428Z,23.90
2022-09-13T17:21:26.224Z,23.80
2022-09-13T17:23:53.359Z,23.70
2022-09-13T17:26:20.201Z,23.70
2022-09-13T17:28:47.107Z,23.60
2022-09-13T17:31:13.907Z,23.60
2022-09-13T17:33:41.106Z,23.50
2022-09-13T17:36:09.887Z,23.50
2022-09-13T17:38:37.325Z,23.40
2022-09-13T17:41:12.190Z,23.40
2022-09-13T17:43:39.968Z,23.30
2022-09-13T17:46:10.172Z,23.30
2022-09-13T17:48:36.927Z,23.30
2022-09-13T17:51:05.856Z,23.20
2022-09-13T17:53:38.555Z,23.20
2022-09-13T17:56:07.541Z,23.10
2022-09-13T17:58:34.869Z,23.10
2022-09-13T18:01:08.638Z,23.10
2022-09-13T18:03:36.493Z,23.00
2022-09-13T18:06:04.752Z,23.00
2022-09-13T18:08:34.744Z,22.90
2022-09-13T18:11:13.684Z,22.80
2022-09-13T18:13:42.820Z,22.80
2022-09-13T18:16:20.959Z,22.80
2022-09-13T18:18:49.582Z,22.70
2022-09-13T18:21:20.597Z,22.70
2022-09-13T18:23:48.942Z,22.70
2022-09-13T18:26:17.920Z,22.60
2022-09-13T18:28:46.507Z,22.50
2022-09-13T18:31:17.433Z,22.50
2022-09-13T18:33:45.480Z,22.50
2022-09-13T18:36:14.617Z,22.40
2022-09-13T18:38:46.322Z,22.40
2022-09-13T18:41:20.756Z,22.30
2022-09-13T18:43:55.093Z,22.30
2022-09-13T18:46:25.399Z,22.20
2022-09-13T18:48:57.207Z,22.20
2022-09-13T18:51:29.915Z,22.20
2022-09-13T18:53:58.494Z,22.10
2022-09-13T18:56:26.444Z,22.10
2022-09-13T18:58:54.304Z,22.10
2022-09-13T19:01:27.227Z,22.10
2022-09-13T19:03:59.476Z,22.00
2022-09-13T19:06:29.042Z,22.00
2022-09-13T19:08:57.645Z,22.00
2022-09-13T19:11:45.819Z,22.00
2022-09-13T19:14:25.389Z,22.00
2022-09-13T19:16:54.014Z,22.00
2022-09-13T19:19:20.952Z,21.90
2022-09-13T19:21:47.946Z,21.90
2022-09-13T19:24:20.109Z,21.90
2022-09-13T19:26:50.598Z,21.80
2022-09-13T19:29:19.697Z,21.80
2022-09-13T19:31:49.163Z,21.70
2022-09-13T19:34:17.909Z,21.70
2022-09-13T19:36:45.012Z,21.70
2022-09-13T19:39:12.419Z,21.60
2022-09-13T19:41:40.288Z,21.50
2022-09-13T19:44:08.607Z,21.40
2022-09-13T19:46:38.502Z,21.30
2022-09-13T19:49:08.235Z,21.30
2022-09-13T19:51:37.313Z,21.30
2022-09-13T19:54:05.853Z,21.30
2022-09-13T19:56:35.565Z,21.20
2022-09-13T19:59:02.971Z,21.20
2022-09-13T20:01:33.538Z,21.20
2022-09-13T20:04:06.856Z,21.10
2022-09-13T20:06:39.704Z,21.10
2022-09-13T20:09:08.890Z,21.00
2022-09-13T20:11:41.289Z,21.00
2022-09-13T20:14:09.148Z,20.90
2022-09-13T20:16:38.198Z,20.90
2022-09-13T20:19:23.574Z,20.80
2022-09-13T20:21:53.755Z,20.80
2022-09-13T20:24:20.485Z,20.80
2022-09-13T20:26:47.886Z,20.80
2022-09-13T20:29:15.021Z,20.70
2022-09-13T20:31:42.079Z,20.70
2022-09-13T20:34:12.047Z,20.70
2022-09-13T20:36:38.815Z,20.70
2022-09-13T20:39:06.424Z,20.70
2022-09-13T20:41:33.317Z,20.70
2022-09-13T20:44:00.937Z,20.70
2022-09-13T20:46:29.365Z,20.70
2022-09-13T20:48:56.267Z,20.60
2022-09-13T20:51:25.444Z,20.70
2022-09-13T20:54:00.544Z,20.70
2022-09-13T20:56:28.841Z,20.70
2022-09-13T20:58:58.323Z,20.70
2022-09-13T21:01:26.511Z,20.70
2022-09-13T21:03:54.862Z,20.70
2022-09-13T21:06:23.614Z,20.70
2022-09-13T21:08:52.190Z,20.70
2022-09-13T21:11:23.535Z,20.70
2022-09-13T21:13:53.416Z,20.80
2022-09-13T21:16:23.225Z,20.70
2022-09-13T21:18:51.318Z,20.80
2022-09-13T21:21:30.046Z,20.80
2022-09-13T21:23:57.934Z,20.80
2022-09-13T21:26:27.756Z,20.80
2022-09-13T21:28:55.711Z,20.70
2022-09-13T21:31:25.103Z,20.70
2022-09-13T21:34:16.331Z,20.70
2022-09-13T21:36:44.241Z,20.70
2022-09-13T21:39:11.206Z,20.70
2022-09-13T21:41:37.980Z,20.80
2022-09-13T21:44:05.381Z,20.70
2022-09-13T21:46:34.783Z,20.80
2022-09-13T21:49:04.793Z,20.80
2022-09-13T21:51:36.910Z,20.80
2022-09-13T21:54:06.636Z,20.70
2022-09-13T21:56:37.139Z,20.70
2022-09-13T21:59:06.901Z,20.80
2022-09-13T22:01:38.118Z,20.80
2022-09-13T22:04:06.207Z,20.70
2022-09-13T22:06:34.691Z,20.70
2022-09-13T22:09:05.283Z,20.60
2022-09-13T22:11:35.959Z,20.40
2022-09-13T22:14:02.882Z,20.30
2022-09-13T22:16:32.533Z,20.20
2022-09-13T22:19:08.947Z,20.00
2022-09-13T22:21:39.036Z,20.10
2022-09-13T22:24:08.570Z,20.20
2022-09-13T22:26:40.414Z,20.10
2022-09-13T22:29:07.762Z,20.00
2022-09-13T22:31:38.784Z,20.10
2022-09-13T22:34:06.647Z,20.30
2022-09-13T22:36:33.898Z,20.40
2022-09-13T22:39:00.648Z,20.40
2022-09-13T22:41:29.909Z,20.50
2022-09-13T22:44:01.705Z,20.60
2022-09-13T22:46:34.861Z,20.60
2022-09-13T22:49:02.231Z,20.50
2022-09-13T22:51:29.346Z,20.50
2022-09-13T22:53:56.823Z,20.50
2022-09-13T22:56:26.595Z,20.50
2022-09-13T22:59:12.460Z,20.50
2022-09-13T23:01:39.241Z,20.40
2022-09-13T23:04:07.110Z,20.40
2022-09-13T23:06:34.463Z,20.20
2022-09-13T23:09:02.620Z,20.00
2022-09-13T23:11:34.591Z,19.90
2022-09-13T23:14:04.089Z,20.00
2022-09-13T23:16:45.507Z,20.00
2022-09-13T23:19:13.551Z,20.10
2022-09-13T23:21:41.029Z,20.10
2022-09-13T23:24:13.696Z,20.10
2022-09-13T23:26:40.538Z,20.10
2022-09-13T23:29:07.552Z,20.20
2022-09-13T23:31:38.785Z,20.10
2022-09-13T23:34:08.079Z,20.20
2022-09-13T23:36:37.439Z,20.20
2022-09-13T23:39:06.503Z,20.20
2022-09-13T23:41:34.112Z,20.20
2022-09-13T23:44:01.842Z,20.20
2022-09-13T23:46:29.120Z,20.10
2022-09-13T23:48:56.136Z,20.10
2022-09-13T23:51:25.515Z,20.00
2022-09-13T23:53:56.713Z,20.00
2022-09-13T23:56:28.102Z,20.00
2022-09-13T23:58:59.671Z,20.00
